sensor_id;sensor_type;location;lat;lon;timestamp;pressure;altitude;pressure_sealevel;temperature;humidity
27643;BME280;15053;48.618;10.024;2023-04-19T00:00:10;94726.09;;;8.97;88.85
27643;BME280;15053;48.618;10.024;2023-04-19T00:02:37;94726.34;;;8.96;88.70
27643;BME280;15053;48.618;10.024;2023-04-19T00:05:07;94719.34;;;8.96;88.58
27643;BME280;15053;48.618;10.024;2023-04-19T00:07:33;94720.41;;;8.95;89.24
27643;BME280;15053;48.618;10.024;2023-04-19T00:10:00;94725.31;;;9.02;88.76
27643;BME280;15053;48.618;10.024;2023-04-19T00:12:27;94725.06;;;9.03;88.92
27643;BME280;15053;48.618;10.024;2023-04-19T00:14:53;94729.19;;;9.04;88.87
27643;BME280;15053;48.618;10.024;2023-04-19T00:17:20;94723.50;;;9.02;89.08
27643;BME280;15053;48.618;10.024;2023-04-19T00:19:46;94725.31;;;9.02;89.15
27643;BME280;15053;48.618;10.024;2023-04-19T00:22:13;94725.31;;;9.02;88.92
27643;BME280;15053;48.618;10.024;2023-04-19T00:24:39;94722.19;;;9.00;88.83
27643;BME280;15053;48.618;10.024;2023-04-19T00:27:06;94726.88;;;9.03;88.96
27643;BME280;15053;48.618;10.024;2023-04-19T00:29:32;94717.25;;;9.03;89.04
27643;BME280;15053;48.618;10.024;2023-04-19T00:31:59;94712.06;;;9.03;88.91
27643;BME280;15053;48.618;10.024;2023-04-19T00:34:25;94715.16;;;9.05;88.86
27643;BME280;15053;48.618;10.024;2023-04-19T00:36:55;94714.13;;;9.01;88.85
27643;BME280;15053;48.618;10.024;2023-04-19T00:39:21;94708.19;;;9.01;89.14
27643;BME280;15053;48.618;10.024;2023-04-19T00:41:47;94682.50;;;8.79;89.08
27643;BME280;15053;48.618;10.024;2023-04-19T00:44:17;94710.03;;;8.95;88.75
27643;BME280;15053;48.618;10.024;2023-04-19T00:46:43;94707.94;;;8.92;88.78
27643;BME280;15053;48.618;10.024;2023-04-19T00:49:10;94703.28;;;8.89;89.17
27643;BME280;15053;48.618;10.024;2023-04-19T00:51:37;94710.53;;;8.92;89.19
27643;BME280;15053;48.618;10.024;2023-04-19T00:54:03;94706.13;;;8.93;89.35
27643;BME280;15053;48.618;10.024;2023-04-19T00:56:33;94706.88;;;8.93;89.56
27643;BME280;15053;48.618;10.024;2023-04-19T00:58:59;94696.50;;;8.93;89.62
27643;BME280;15053;48.618;10.024;2023-04-19T01:01:26;94696.50;;;8.93;89.76
27643;BME280;15053;48.618;10.024;2023-04-19T01:03:54;94704.81;;;8.95;89.70
27643;BME280;15053;48.618;10.024;2023-04-19T01:06:20;94693.66;;;8.95;89.75
27643;BME280;15053;48.618;10.024;2023-04-19T01:08:47;94697.03;;;8.95;89.24
27643;BME280;15053;48.618;10.024;2023-04-19T01:11:13;94693.91;;;8.93;89.39
27643;BME280;15053;48.618;10.024;2023-04-19T01:13:43;94687.16;;;8.92;89.86
27643;BME280;15053;48.618;10.024;2023-04-19T01:16:09;94689.75;;;8.92;89.85
27643;BME280;15053;48.618;10.024;2023-04-19T01:18:36;94677.81;;;8.91;89.61
27643;BME280;15053;48.618;10.024;2023-04-19T01:21:04;94682.75;;;8.93;89.64
27643;BME280;15053;48.618;10.024;2023-04-19T01:23:32;94685.34;;;8.93;89.64
27643;BME280;15053;48.618;10.024;2023-04-19T01:26:00;94689.75;;;8.92;89.73
27643;BME280;15053;48.618;10.024;2023-04-19T01:28:27;94680.41;;;8.91;89.84
27643;BME280;15053;48.618;10.024;2023-04-19T01:30:53;94673.66;;;8.90;89.97
27643;BME280;15053;48.618;10.024;2023-04-19T01:33:21;94681.44;;;8.90;89.42
27643;BME280;15053;48.618;10.024;2023-04-19T01:35:47;94676.53;;;8.88;90.01
27643;BME280;15053;48.618;10.024;2023-04-19T01:38:15;94669.00;;;8.87;90.08
27643;BME280;15053;48.618;10.024;2023-04-19T01:40:42;94669.78;;;8.93;89.77
27643;BME280;15053;48.618;10.024;2023-04-19T01:43:12;94672.09;;;8.94;90.08
27643;BME280;15053;48.618;10.024;2023-04-19T01:45:39;94674.19;;;8.92;90.12
27643;BME280;15053;48.618;10.024;2023-04-19T01:48:05;94659.13;;;8.89;90.04
27643;BME280;15053;48.618;10.024;2023-04-19T01:50:33;94661.97;;;8.93;90.27
27643;BME280;15053;48.618;10.024;2023-04-19T01:52:59;94661.72;;;8.89;90.29
27643;BME280;15053;48.618;10.024;2023-04-19T01:55:28;94664.81;;;8.91;90.07
27643;BME280;15053;48.618;10.024;2023-04-19T01:57:54;94661.44;;;8.90;90.35
27643;BME280;15053;48.618;10.024;2023-04-19T02:00:22;94662.75;;;8.88;90.28
27643;BME280;15053;48.618;10.024;2023-04-19T02:02:48;94666.13;;;8.88;90.85
27643;BME280;15053;48.618;10.024;2023-04-19T02:05:15;94664.31;;;8.89;90.56
27643;BME280;15053;48.618;10.024;2023-04-19T02:07:41;94658.06;;;8.90;90.39
27643;BME280;15053;48.618;10.024;2023-04-19T02:10:09;94660.66;;;8.90;90.40
27643;BME280;15053;48.618;10.024;2023-04-19T02:12:36;94656.03;;;8.87;90.69
27643;BME280;15053;48.618;10.024;2023-04-19T02:15:03;94656.28;;;8.85;90.28
27643;BME280;15053;48.618;10.024;2023-04-19T02:17:32;94641.50;;;8.81;90.61
27643;BME280;15053;48.618;10.024;2023-04-19T02:19:59;94645.91;;;8.80;90.76
27643;BME280;15053;48.618;10.024;2023-04-19T02:22:25;94644.34;;;8.79;91.20
27643;BME280;15053;48.618;10.024;2023-04-19T02:24:52;94635.00;;;8.78;91.20
27643;BME280;15053;48.618;10.024;2023-04-19T02:27:25;94636.56;;;8.74;90.77
27643;BME280;15053;48.618;10.024;2023-04-19T02:29:53;94637.09;;;8.71;90.91
27643;BME280;15053;48.618;10.024;2023-04-19T02:32:19;94631.13;;;8.71;91.05
27643;BME280;15053;48.618;10.024;2023-04-19T02:34:46;94636.31;;;8.71;91.18
27643;BME280;15053;48.618;10.024;2023-04-19T02:37:12;94632.72;;;8.67;91.02
27643;BME280;15053;48.618;10.024;2023-04-19T02:39:39;94625.44;;;8.64;91.66
27643;BME280;15053;48.618;10.024;2023-04-19T02:42:07;94624.66;;;8.63;91.67
27643;BME280;15053;48.618;10.024;2023-04-19T02:44:34;94621.81;;;8.65;91.81
27643;BME280;15053;48.618;10.024;2023-04-19T02:47:00;94621.03;;;8.64;92.05
27643;BME280;15053;48.618;10.024;2023-04-19T02:49:29;94621.81;;;8.65;91.67
27643;BME280;15053;48.618;10.024;2023-04-19T02:51:58;94614.53;;;8.67;91.64
27643;BME280;15053;48.618;10.024;2023-04-19T02:54:25;94624.94;;;8.67;91.53
27643;BME280;15053;48.618;10.024;2023-04-19T02:56:52;94614.78;;;8.70;91.51
27643;BME280;15053;48.618;10.024;2023-04-19T02:59:18;94620.00;;;8.70;91.52
27643;BME280;15053;48.618;10.024;2023-04-19T03:01:45;94611.41;;;8.70;91.38
27643;BME280;15053;48.618;10.024;2023-04-19T03:04:12;94611.94;;;8.67;91.53
27643;BME280;15053;48.618;10.024;2023-04-19T03:06:40;94612.97;;;8.66;91.69
27643;BME280;15053;48.618;10.024;2023-04-19T03:09:07;94600.28;;;8.64;91.19
27643;BME280;15053;48.618;10.024;2023-04-19T03:11:34;94605.47;;;8.64;91.23
27643;BME280;15053;48.618;10.024;2023-04-19T03:14:02;94606.75;;;8.67;91.13
27643;BME280;15053;48.618;10.024;2023-04-19T03:16:28;94597.69;;;8.64;91.11
27643;BME280;15053;48.618;10.024;2023-04-19T03:18:56;94597.94;;;8.63;91.53
27643;BME280;15053;48.618;10.024;2023-04-19T03:21:26;94605.47;;;8.64;91.20
27643;BME280;15053;48.618;10.024;2023-04-19T03:23:54;94599.50;;;8.64;91.73
27643;BME280;15053;48.618;10.024;2023-04-19T03:26:23;94597.19;;;8.62;91.45
27643;BME280;15053;48.618;10.024;2023-04-19T03:28:52;94596.66;;;8.60;90.93
27643;BME280;15053;48.618;10.024;2023-04-19T03:31:36;94591.47;;;8.55;91.15
27643;BME280;15053;48.618;10.024;2023-04-19T03:34:04;94588.63;;;8.57;91.44
27643;BME280;15053;48.618;10.024;2023-04-19T03:36:38;94594.56;;;8.57;90.92
27643;BME280;15053;48.618;10.024;2023-04-19T03:39:05;94593.28;;;8.55;91.08
27643;BME280;15053;48.618;10.024;2023-04-19T03:41:34;94590.19;;;8.53;91.54
27643;BME280;15053;48.618;10.024;2023-04-19T03:44:08;94591.75;;;8.54;91.30
27643;BME280;15053;48.618;10.024;2023-04-19T03:46:36;94579.03;;;8.52;91.14
27643;BME280;15053;48.618;10.024;2023-04-19T03:49:02;94583.97;;;8.54;91.43
27643;BME280;15053;48.618;10.024;2023-04-19T03:51:29;94580.84;;;8.52;91.21
27643;BME280;15053;48.618;10.024;2023-04-19T03:53:56;94578.25;;;8.52;91.19
27643;BME280;15053;48.618;10.024;2023-04-19T03:56:23;94581.63;;;8.47;91.55
27643;BME280;15053;48.618;10.024;2023-04-19T03:58:51;94580.84;;;8.47;91.42
27643;BME280;15053;48.618;10.024;2023-04-19T04:01:18;94581.38;;;8.49;90.97
27643;BME280;15053;48.618;10.024;2023-04-19T04:03:45;94583.22;;;8.48;91.86
27643;BME280;15053;48.618;10.024;2023-04-19T04:06:12;94576.44;;;8.47;91.03
27643;BME280;15053;48.618;10.024;2023-04-19T04:08:38;94577.75;;;8.50;91.42
27643;BME280;15053;48.618;10.024;2023-04-19T04:11:05;94579.53;;;8.49;91.73
27643;BME280;15053;48.618;10.024;2023-04-19T04:13:31;94581.13;;;8.45;91.54
27643;BME280;15053;48.618;10.024;2023-04-19T04:16:12;94585.56;;;8.40;91.28
27643;BME280;15053;48.618;10.024;2023-04-19T04:18:39;94582.47;;;8.32;91.29
27643;BME280;15053;48.618;10.024;2023-04-19T04:21:08;94579.88;;;8.27;91.72
27643;BME280;15053;48.618;10.024;2023-04-19T04:23:38;94586.09;;;8.26;91.61
27643;BME280;15053;48.618;10.024;2023-04-19T04:26:08;94585.56;;;8.24;91.92
27643;BME280;15053;48.618;10.024;2023-04-19T04:28:49;94587.66;;;8.22;91.78
27643;BME280;15053;48.618;10.024;2023-04-19T04:31:17;94584.28;;;8.22;92.52
27643;BME280;15053;48.618;10.024;2023-04-19T04:33:45;94582.97;;;8.19;91.97
27643;BME280;15053;48.618;10.024;2023-04-19T04:36:13;94581.69;;;8.22;92.47
27643;BME280;15053;48.618;10.024;2023-04-19T04:38:40;94580.38;;;8.24;92.54
27643;BME280;15053;48.618;10.024;2023-04-19T04:41:07;94585.06;;;8.22;92.10
27643;BME280;15053;48.618;10.024;2023-04-19T04:43:33;94590.25;;;8.22;92.22
27643;BME280;15053;48.618;10.024;2023-04-19T04:46:00;94584.56;;;8.20;92.14
27643;BME280;15053;48.618;10.024;2023-04-19T04:48:32;94588.69;;;8.21;92.37
27643;BME280;15053;48.618;10.024;2023-04-19T04:50:58;94588.97;;;8.20;92.62
27643;BME280;15053;48.618;10.024;2023-04-19T04:53:27;94582.97;;;8.19;92.85
27643;BME280;15053;48.618;10.024;2023-04-19T04:55:53;94587.94;;;8.21;92.25
27643;BME280;15053;48.618;10.024;2023-04-19T04:58:20;94588.97;;;8.20;92.52
27643;BME280;15053;48.618;10.024;2023-04-19T05:00:58;94588.44;;;8.18;92.54
27643;BME280;15053;48.618;10.024;2023-04-19T05:03:25;94593.63;;;8.18;92.58
27643;BME280;15053;48.618;10.024;2023-04-19T05:05:56;94594.16;;;8.15;92.45
27643;BME280;15053;48.618;10.024;2023-04-19T05:08:25;94593.88;;;8.16;92.76
27643;BME280;15053;48.618;10.024;2023-04-19T05:10:57;94588.69;;;8.16;92.66
27643;BME280;15053;48.618;10.024;2023-04-19T05:13:27;94586.63;;;8.18;92.53
27643;BME280;15053;48.618;10.024;2023-04-19T05:15:54;94591.28;;;8.21;93.01
27643;BME280;15053;48.618;10.024;2023-04-19T05:18:22;94596.22;;;8.23;92.58
27643;BME280;15053;48.618;10.024;2023-04-19T05:20:49;94591.03;;;8.23;92.59
27643;BME280;15053;48.618;10.024;2023-04-19T05:23:20;94594.41;;;8.23;91.86
27643;BME280;15053;48.618;10.024;2023-04-19T05:25:48;94590.25;;;8.22;91.79
27643;BME280;15053;48.618;10.024;2023-04-19T05:28:15;94594.41;;;8.23;91.88
27643;BME280;15053;48.618;10.024;2023-04-19T05:30:54;94592.31;;;8.25;91.45
27643;BME280;15053;48.618;10.024;2023-04-19T05:33:23;94589.72;;;8.25;91.86
27643;BME280;15053;48.618;10.024;2023-04-19T05:35:53;94588.16;;;8.24;91.88
27643;BME280;15053;48.618;10.024;2023-04-19T05:38:19;94589.72;;;8.25;92.25
27643;BME280;15053;48.618;10.024;2023-04-19T05:40:47;94592.84;;;8.27;91.13
27643;BME280;15053;48.618;10.024;2023-04-19T05:43:14;94587.13;;;8.25;91.20
27643;BME280;15053;48.618;10.024;2023-04-19T05:45:41;94586.63;;;8.23;91.41
27643;BME280;15053;48.618;10.024;2023-04-19T05:48:07;94590.75;;;8.24;91.10
27643;BME280;15053;48.618;10.024;2023-04-19T05:51:00;94595.94;;;8.29;91.61
27643;BME280;15053;48.618;10.024;2023-04-19T05:53:45;94594.13;;;8.30;91.51
27643;BME280;15053;48.618;10.024;2023-04-19T05:56:11;94594.94;;;8.30;90.79
27643;BME280;15053;48.618;10.024;2023-04-19T05:58:39;94591.81;;;8.34;90.55
27643;BME280;15053;48.618;10.024;2023-04-19T06:01:06;94597.50;;;8.36;90.86
27643;BME280;15053;48.618;10.024;2023-04-19T06:03:33;94593.88;;;8.37;90.56
27643;BME280;15053;48.618;10.024;2023-04-19T06:06:00;94593.88;;;8.37;90.51
27643;BME280;15053;48.618;10.024;2023-04-19T06:08:27;94584.78;;;8.39;90.51
27643;BME280;15053;48.618;10.024;2023-04-19T06:10:53;94593.06;;;8.41;90.28
27643;BME280;15053;48.618;10.024;2023-04-19T06:13:22;94590.47;;;8.41;89.76
27643;BME280;15053;48.618;10.024;2023-04-19T06:15:49;94598.25;;;8.41;89.87
27643;BME280;15053;48.618;10.024;2023-04-19T06:18:15;94591.25;;;8.42;90.01
27643;BME280;15053;48.618;10.024;2023-04-19T06:20:45;94596.72;;;8.45;89.99
27643;BME280;15053;48.618;10.024;2023-04-19T06:23:11;94594.63;;;8.47;89.72
27643;BME280;15053;48.618;10.024;2023-04-19T06:25:40;94589.94;;;8.49;89.57
27643;BME280;15053;48.618;10.024;2023-04-19T06:28:06;94597.19;;;8.52;89.41
27643;BME280;15053;48.618;10.024;2023-04-19T06:30:32;94589.16;;;8.54;89.56
27643;BME280;15053;48.618;10.024;2023-04-19T06:32:59;94596.13;;;8.58;89.71
27643;BME280;15053;48.618;10.024;2023-04-19T06:35:25;94594.81;;;8.61;89.32
27643;BME280;15053;48.618;10.024;2023-04-19T06:37:52;94600.28;;;8.64;89.23
27643;BME280;15053;48.618;10.024;2023-04-19T06:40:18;94596.88;;;8.69;88.72
27643;BME280;15053;48.618;10.024;2023-04-19T06:42:45;94598.41;;;8.75;88.94
27643;BME280;15053;48.618;10.024;2023-04-19T06:45:11;94602.03;;;8.74;88.24
27643;BME280;15053;48.618;10.024;2023-04-19T06:47:38;94603.88;;;8.73;88.18
27643;BME280;15053;48.618;10.024;2023-04-19T06:50:05;94599.22;;;8.70;88.16
27643;BME280;15053;48.618;10.024;2023-04-19T06:52:31;94585.97;;;8.72;88.33
27643;BME280;15053;48.618;10.024;2023-04-19T06:54:58;94592.41;;;8.79;87.88
27643;BME280;15053;48.618;10.024;2023-04-19T06:57:24;94587.97;;;8.85;88.03
27643;BME280;15053;48.618;10.024;2023-04-19T06:59:54;94588.50;;;8.87;87.61
27643;BME280;15053;48.618;10.024;2023-04-19T07:02:20;94585.63;;;8.88;87.45
27643;BME280;15053;48.618;10.024;2023-04-19T07:04:47;94592.59;;;8.93;87.47
27643;BME280;15053;48.618;10.024;2023-04-19T07:07:14;94589.47;;;8.96;87.40
27643;BME280;15053;48.618;10.024;2023-04-19T07:09:40;94588.19;;;8.94;86.83
27643;BME280;15053;48.618;10.024;2023-04-19T07:12:07;94586.41;;;8.89;86.85
27643;BME280;15053;48.618;10.024;2023-04-19T07:14:34;94585.34;;;8.95;86.54
27643;BME280;15053;48.618;10.024;2023-04-19T07:17:00;94581.41;;;9.03;86.78
27643;BME280;15053;48.618;10.024;2023-04-19T07:19:26;94581.38;;;9.08;86.47
27643;BME280;15053;48.618;10.024;2023-04-19T07:21:54;94584.72;;;9.13;86.59
27643;BME280;15053;48.618;10.024;2023-04-19T07:24:20;94578.94;;;9.21;86.34
27643;BME280;15053;48.618;10.024;2023-04-19T07:26:47;94574.78;;;9.25;85.95
27643;BME280;15053;48.618;10.024;2023-04-19T07:29:13;94577.34;;;9.30;85.86
27643;BME280;15053;48.618;10.024;2023-04-19T07:31:40;94571.06;;;9.36;85.46
27643;BME280;15053;48.618;10.024;2023-04-19T07:34:07;94565.28;;;9.44;85.58
27643;BME280;15053;48.618;10.024;2023-04-19T07:36:34;94565.25;;;9.49;84.94
27643;BME280;15053;48.618;10.024;2023-04-19T07:39:02;94570.41;;;9.55;84.29
27643;BME280;15053;48.618;10.024;2023-04-19T07:41:31;94565.94;;;9.60;84.10
27643;BME280;15053;48.618;10.024;2023-04-19T07:43:57;94568.69;;;9.74;84.15
27643;BME280;15053;48.618;10.024;2023-04-19T07:46:24;94562.34;;;9.85;84.38
27643;BME280;15053;48.618;10.024;2023-04-19T07:48:50;94571.56;;;10.01;83.87
27643;BME280;15053;48.618;10.024;2023-04-19T07:51:17;94560.53;;;10.09;83.25
27643;BME280;15053;48.618;10.024;2023-04-19T07:53:45;94563.44;;;10.07;82.14
27643;BME280;15053;48.618;10.024;2023-04-19T07:56:12;94565.81;;;10.04;81.90
27643;BME280;15053;48.618;10.024;2023-04-19T07:58:40;94566.28;;;10.06;81.80
27643;BME280;15053;48.618;10.024;2023-04-19T08:01:07;94560.06;;;10.07;81.85
27643;BME280;15053;48.618;10.024;2023-04-19T08:03:34;94560.06;;;10.07;81.76
27643;BME280;15053;48.618;10.024;2023-04-19T08:06:05;94555.41;;;10.04;81.34
27643;BME280;15053;48.618;10.024;2023-04-19T08:08:35;94553.84;;;10.03;81.29
27643;BME280;15053;48.618;10.024;2023-04-19T08:11:03;94555.41;;;10.04;80.96
27643;BME280;15053;48.618;10.024;2023-04-19T08:13:30;94557.41;;;10.12;81.13
27643;BME280;15053;48.618;10.024;2023-04-19T08:15:56;94540.44;;;10.20;80.85
27643;BME280;15053;48.618;10.024;2023-04-19T08:18:26;94520.66;;;10.19;80.92
27643;BME280;15053;48.618;10.024;2023-04-19T08:20:52;94547.78;;;10.60;80.40
27643;BME280;15053;48.618;10.024;2023-04-19T08:23:19;94551.41;;;10.83;80.82
27643;BME280;15053;48.618;10.024;2023-04-19T08:25:54;94542.97;;;11.09;80.35
27643;BME280;15053;48.618;10.024;2023-04-19T08:28:21;94535.97;;;11.42;79.58
27643;BME280;15053;48.618;10.024;2023-04-19T08:30:48;94542.31;;;11.68;78.52
27643;BME280;15053;48.618;10.024;2023-04-19T08:33:14;94539.00;;;11.81;77.31
27643;BME280;15053;48.618;10.024;2023-04-19T08:35:41;94543.25;;;11.77;76.84
27643;BME280;15053;48.618;10.024;2023-04-19T08:38:08;94539.47;;;11.70;76.67
27643;BME280;15053;48.618;10.024;2023-04-19T08:40:39;94540.75;;;11.67;76.09
27643;BME280;15053;48.618;10.024;2023-04-19T08:43:06;94547.16;;;11.61;76.01
27643;BME280;15053;48.618;10.024;2023-04-19T08:45:33;94542.28;;;11.55;76.04
27643;BME280;15053;48.618;10.024;2023-04-19T08:48:00;94545.19;;;11.53;75.93
27643;BME280;15053;48.618;10.024;2023-04-19T08:50:29;94540.38;;;11.60;75.16
27643;BME280;15053;48.618;10.024;2023-04-19T08:53:10;94541.50;;;11.54;75.20
27643;BME280;15053;48.618;10.024;2023-04-19T08:55:41;94539.53;;;11.46;74.97
27643;BME280;15053;48.618;10.024;2023-04-19T08:58:28;94536.31;;;11.36;75.15
27643;BME280;15053;48.618;10.024;2023-04-19T09:01:17;94535.63;;;11.30;74.65
27643;BME280;15053;48.618;10.024;2023-04-19T09:03:48;94531.97;;;11.31;75.16
27643;BME280;15053;48.618;10.024;2023-04-19T09:06:38;94531.25;;;11.44;75.15
27643;BME280;15053;48.618;10.024;2023-04-19T09:09:19;94523.47;;;11.58;74.68
27643;BME280;15053;48.618;10.024;2023-04-19T09:12:01;94517.25;;;11.72;74.60
27643;BME280;15053;48.618;10.024;2023-04-19T09:14:27;94511.84;;;11.82;73.48
27643;BME280;15053;48.618;10.024;2023-04-19T09:17:11;94518.66;;;11.97;73.16
27643;BME280;15053;48.618;10.024;2023-04-19T09:19:45;94514.88;;;12.03;72.63
27643;BME280;15053;48.618;10.024;2023-04-19T09:22:13;94512.47;;;12.07;71.77
27643;BME280;15053;48.618;10.024;2023-04-19T09:24:40;94511.31;;;12.13;71.61
27643;BME280;15053;48.618;10.024;2023-04-19T09:27:09;94506.28;;;12.30;71.77
27643;BME280;15053;48.618;10.024;2023-04-19T09:29:37;94501.66;;;12.40;71.05
27643;BME280;15053;48.618;10.024;2023-04-19T09:32:04;94502.00;;;12.48;71.13
27643;BME280;15053;48.618;10.024;2023-04-19T09:34:31;94498.44;;;12.57;70.13
27643;BME280;15053;48.618;10.024;2023-04-19T09:37:10;94487.28;;;12.65;69.40
27643;BME280;15053;48.618;10.024;2023-04-19T09:39:57;94490.47;;;12.76;69.65
27643;BME280;15053;48.618;10.024;2023-04-19T09:42:43;94490.25;;;12.72;69.13
27643;BME280;15053;48.618;10.024;2023-04-19T09:45:43;94478.69;;;12.65;68.63
27643;BME280;15053;48.618;10.024;2023-04-19T09:48:11;94479.75;;;12.50;68.63
27643;BME280;15053;48.618;10.024;2023-04-19T09:50:55;94482.28;;;12.41;68.97
27643;BME280;15053;48.618;10.024;2023-04-19T09:53:31;94482.47;;;12.31;69.41
27643;BME280;15053;48.618;10.024;2023-04-19T09:56:00;94485.19;;;12.26;68.92
27643;BME280;15053;48.618;10.024;2023-04-19T09:58:29;94479.41;;;12.16;69.24
27643;BME280;15053;48.618;10.024;2023-04-19T10:01:16;94479.09;;;12.04;69.55
27643;BME280;15053;48.618;10.024;2023-04-19T10:03:46;94471.84;;;12.01;69.66
27643;BME280;15053;48.618;10.024;2023-04-19T10:06:16;94470.00;;;11.88;69.43
27643;BME280;15053;48.618;10.024;2023-04-19T10:09:03;94467.59;;;11.77;70.00
27643;BME280;15053;48.618;10.024;2023-04-19T10:11:35;94450.13;;;11.59;70.16
27643;BME280;15053;48.618;10.024;2023-04-19T10:14:08;94466.75;;;11.63;70.67
27643;BME280;15053;48.618;10.024;2023-04-19T10:16:37;94463.75;;;11.56;70.64
27643;BME280;15053;48.618;10.024;2023-04-19T10:19:09;94461.59;;;11.45;71.21
27643;BME280;15053;48.618;10.024;2023-04-19T10:21:36;94468.16;;;11.42;71.86
27643;BME280;15053;48.618;10.024;2023-04-19T10:24:04;94466.69;;;11.36;71.72
27643;BME280;15053;48.618;10.024;2023-04-19T10:27:04;94462.63;;;11.30;71.13
27643;BME280;15053;48.618;10.024;2023-04-19T10:32:16;94465.97;;;11.17;71.91
27643;BME280;15053;48.618;10.024;2023-04-19T10:34:45;94459.34;;;11.06;72.17
27643;BME280;15053;48.618;10.024;2023-04-19T10:37:15;94469.88;;;11.01;72.51
27643;BME280;15053;48.618;10.024;2023-04-19T10:39:43;94458.66;;;11.00;72.82
27643;BME280;15053;48.618;10.024;2023-04-19T10:42:10;94461.53;;;10.99;72.95
27643;BME280;15053;48.618;10.024;2023-04-19T10:44:36;94460.41;;;11.05;73.03
27643;BME280;15053;48.618;10.024;2023-04-19T10:47:04;94458.31;;;11.07;72.65
27643;BME280;15053;48.618;10.024;2023-04-19T10:49:43;94452.50;;;11.10;72.95
27643;BME280;15053;48.618;10.024;2023-04-19T10:52:26;94450.97;;;11.09;72.41
27643;BME280;15053;48.618;10.024;2023-04-19T10:54:55;94445.75;;;11.09;72.49
27643;BME280;15053;48.618;10.024;2023-04-19T10:57:22;94440.53;;;11.09;72.79
27643;BME280;15053;48.618;10.024;2023-04-19T11:00:22;94442.66;;;11.07;73.17
27643;BME280;15053;48.618;10.024;2023-04-19T11:02:50;94443.94;;;11.09;73.50
27643;BME280;15053;48.618;10.024;2023-04-19T11:05:17;94439.69;;;11.13;74.35
27643;BME280;15053;48.618;10.024;2023-04-19T11:07:45;94431.50;;;11.20;74.55
27643;BME280;15053;48.618;10.024;2023-04-19T11:10:12;94433.03;;;11.21;74.74
27643;BME280;15053;48.618;10.024;2023-04-19T11:12:42;94438.06;;;11.17;73.64
27643;BME280;15053;48.618;10.024;2023-04-19T11:15:09;94429.34;;;11.08;73.08
27643;BME280;15053;48.618;10.024;2023-04-19T11:17:37;94428.94;;;11.01;73.55
27643;BME280;15053;48.618;10.024;2023-04-19T11:20:08;94433.38;;;11.01;73.82
27643;BME280;15053;48.618;10.024;2023-04-19T11:22:40;94424.88;;;10.95;74.19
27643;BME280;15053;48.618;10.024;2023-04-19T11:27:39;94422.75;;;10.97;74.21
27643;BME280;15053;48.618;10.024;2023-04-19T11:30:09;94415.22;;;10.96;74.45
27643;BME280;15053;48.618;10.024;2023-04-19T11:32:37;94413.22;;;10.88;75.00
27643;BME280;15053;48.618;10.024;2023-04-19T11:35:06;94415.91;;;10.83;74.99
27643;BME280;15053;48.618;10.024;2023-04-19T11:37:34;94417.06;;;10.77;76.09
27643;BME280;15053;48.618;10.024;2023-04-19T11:40:02;94410.47;;;10.65;76.67
27643;BME280;15053;48.618;10.024;2023-04-19T11:42:31;94405.91;;;10.57;77.07
27643;BME280;15053;48.618;10.024;2023-04-19T11:44:58;94412.78;;;10.48;77.88
27643;BME280;15053;48.618;10.024;2023-04-19T11:47:25;94408.78;;;10.37;78.63
27643;BME280;15053;48.618;10.024;2023-04-19T11:49:53;94407.84;;;10.28;79.02
27643;BME280;15053;48.618;10.024;2023-04-19T11:52:24;94408.97;;;10.22;79.89
27643;BME280;15053;48.618;10.024;2023-04-19T11:54:52;94407.19;;;10.18;79.93
27643;BME280;15053;48.618;10.024;2023-04-19T11:57:31;94406.97;;;10.14;80.80
27643;BME280;15053;48.618;10.024;2023-04-19T12:00:08;94406.53;;;10.07;81.44
27643;BME280;15053;48.618;10.024;2023-04-19T12:02:38;94400.13;;;9.99;82.29
27643;BME280;15053;48.618;10.024;2023-04-19T12:05:15;94401.16;;;9.98;83.03
27643;BME280;15053;48.618;10.024;2023-04-19T12:08:01;94398.84;;;9.97;83.52
27643;BME280;15053;48.618;10.024;2023-04-19T12:10:32;94400.13;;;9.99;84.33
27643;BME280;15053;48.618;10.024;2023-04-19T12:12:58;94396.75;;;9.99;85.02
27643;BME280;15053;48.618;10.024;2023-04-19T12:15:41;94399.06;;;10.00;85.58
27643;BME280;15053;48.618;10.024;2023-04-19T12:18:08;94397.53;;;9.99;86.17
27643;BME280;15053;48.618;10.024;2023-04-19T12:20:36;94391.25;;;10.00;86.39
27643;BME280;15053;48.618;10.024;2023-04-19T12:23:03;94396.38;;;10.05;86.83
27643;BME280;15053;48.618;10.024;2023-04-19T12:25:30;94386.19;;;10.09;86.93
27643;BME280;15053;48.618;10.024;2023-04-19T12:28:02;94392.19;;;10.09;87.51
27643;BME280;15053;48.618;10.024;2023-04-19T12:30:29;94381.06;;;10.04;87.55
27643;BME280;15053;48.618;10.024;2023-04-19T12:32:57;94376.41;;;10.01;87.72
27643;BME280;15053;48.618;10.024;2023-04-19T12:35:25;94379.88;;;9.96;87.96
27643;BME280;15053;48.618;10.024;2023-04-19T12:37:56;94383.56;;;9.90;88.43
27643;BME280;15053;48.618;10.024;2023-04-19T12:40:24;94378.16;;;9.87;88.20
27643;BME280;15053;48.618;10.024;2023-04-19T12:42:52;94381.31;;;9.84;88.90
27643;BME280;15053;48.618;10.024;2023-04-19T12:45:19;94381.09;;;9.80;88.93
27643;BME280;15053;48.618;10.024;2023-04-19T12:47:47;94385.38;;;9.71;89.15
27643;BME280;15053;48.618;10.024;2023-04-19T12:50:15;94376.75;;;9.52;89.21
27643;BME280;15053;48.618;10.024;2023-04-19T12:52:43;94388.53;;;9.44;89.60
27643;BME280;15053;48.618;10.024;2023-04-19T12:55:09;94380.53;;;9.36;89.61
27643;BME280;15053;48.618;10.024;2023-04-19T12:57:36;94381.94;;;9.28;89.78
27643;BME280;15053;48.618;10.024;2023-04-19T13:00:03;94378.81;;;9.26;90.18
27643;BME280;15053;48.618;10.024;2023-04-19T13:02:33;94379.34;;;9.23;90.55
27643;BME280;15053;48.618;10.024;2023-04-19T13:04:59;94372.88;;;9.21;90.78
27643;BME280;15053;48.618;10.024;2023-04-19T13:07:26;94379.91;;;9.20;90.89
27643;BME280;15053;48.618;10.024;2023-04-19T13:09:53;94377.69;;;9.09;90.95
27643;BME280;15053;48.618;10.024;2023-04-19T13:12:22;94376.44;;;9.01;91.32